Time;durP1;ratioP1;P1;durP2;ratioP2;P2;SDS_P1;SDS_P2;PMS_P1;PMS_P2;Temp;Humidity;BMP_temperature;BMP_pressure;BME280_temperature;BME280_humidity;BME280_pressure;Samples;Min_cycle;Max_cycle;Signal;HPM_P1;HPM_P2
2021/11/08 00:01:17;;;;;;;19.58;2.03;;;8.10;99.90;;;;;;5058514;28;20044;-74
2021/11/08 00:03:44;;;;;;;19.63;2.30;;;8.10;99.90;;;;;;5059659;28;20040;-75
2021/11/08 00:06:10;;;;;;;19.02;2.30;;;8.10;99.90;;;;;;5057637;28;20044;-74
2021/11/08 00:08:37;;;;;;;10.30;2.25;;;8.10;99.90;;;;;;5057737;28;20051;-75
2021/11/08 00:11:03;;;;;;;17.05;1.83;;;8.10;99.90;;;;;;5060668;28;20134;-74
2021/11/08 00:13:29;;;;;;;24.02;3.25;;;8.20;99.90;;;;;;5058964;28;20039;-75
2021/11/08 00:19:01;;;;;;;19.83;2.38;;;8.20;99.90;;;;;;5059366;28;20037;-74
2021/11/08 00:21:31;;;;;;;24.38;2.60;;;8.20;99.90;;;;;;5086908;27;20151;-75
2021/11/08 00:23:57;;;;;;;20.20;2.38;;;8.20;99.90;;;;;;5057926;28;20080;-74
2021/11/08 00:26:23;;;;;;;19.08;2.65;;;8.30;99.90;;;;;;5059679;28;20140;-74
2021/11/08 00:28:49;;;;;;;14.48;2.35;;;8.30;99.90;;;;;;5059291;28;20037;-75
2021/11/08 00:31:15;;;;;;;13.75;2.00;;;8.30;99.90;;;;;;5059732;28;20393;-74
2021/11/08 00:33:41;;;;;;;15.68;2.53;;;8.30;99.90;;;;;;5058083;28;21571;-75
2021/11/08 00:36:07;;;;;;;16.80;2.22;;;8.30;99.90;;;;;;5063090;28;20036;-75
2021/11/08 00:38:33;;;;;;;18.02;1.85;;;8.30;99.90;;;;;;5057587;28;20036;-75
2021/11/08 00:40:59;;;;;;;14.30;2.75;;;8.30;99.90;;;;;;5058512;28;20509;-75
2021/11/08 00:43:25;;;;;;;18.65;2.40;;;8.30;99.90;;;;;;5055573;28;20070;-75
2021/11/08 00:45:51;;;;;;;13.10;1.70;;;8.20;99.90;;;;;;5058552;28;20130;-75
2021/11/08 00:48:20;;;;;;;10.80;1.90;;;8.30;99.90;;;;;;5089697;27;20063;-74
2021/11/08 00:50:49;;;;;;;16.48;2.42;;;8.30;99.90;;;;;;5058359;28;20055;-74
2021/11/08 00:53:15;;;;;;;16.08;2.47;;;8.30;99.90;;;;;;5059266;28;20074;-75
2021/11/08 00:55:42;;;;;;;14.40;2.63;;;8.30;99.90;;;;;;5060060;28;20119;-74
2021/11/08 00:58:14;;;;;;;10.15;1.40;;;8.30;99.90;;;;;;5056855;28;20072;-74
2021/11/08 01:00:40;;;;;;;18.60;2.38;;;8.30;99.90;;;;;;5059910;28;20091;-74
2021/11/08 01:03:07;;;;;;;9.45;1.70;;;8.30;99.90;;;;;;5057870;28;20047;-75
2021/11/08 01:05:33;;;;;;;11.30;1.65;;;8.30;99.90;;;;;;5061629;28;20540;-75
2021/11/08 01:08:00;;;;;;;9.82;1.67;;;8.30;99.90;;;;;;5057151;28;20048;-75
2021/11/08 01:10:26;;;;;;;12.32;1.73;;;8.30;99.90;;;;;;5060166;28;20479;-75
2021/11/08 01:12:52;;;;;;;14.25;1.63;;;8.30;99.90;;;;;;5044793;28;20140;-75
2021/11/08 01:15:18;;;;;;;10.00;1.70;;;8.30;99.90;;;;;;5055800;28;20397;-75
2021/11/08 01:17:45;;;;;;;12.05;1.65;;;8.20;99.90;;;;;;5058283;28;20036;-75
2021/11/08 01:20:12;;;;;;;17.08;3.33;;;8.20;99.90;;;;;;5056255;28;20442;-75
2021/11/08 01:22:41;;;;;;;17.02;1.40;;;8.20;99.90;;;;;;5057860;28;20036;-75
2021/11/08 01:25:09;;;;;;;11.30;1.98;;;8.10;99.90;;;;;;5088141;28;20048;-74
2021/11/08 01:27:42;;;;;;;12.73;1.70;;;8.10;99.90;;;;;;5059159;28;20063;-75
2021/11/08 01:30:14;;;;;;;11.65;1.30;;;8.00;99.90;;;;;;5057653;28;20048;-75
2021/11/08 01:32:51;;;;;;;11.88;1.48;;;8.00;99.90;;;;;;5088179;28;20102;-75
2021/11/08 01:35:17;;;;;;;18.13;1.45;;;7.90;99.90;;;;;;5057335;28;20533;-74
2021/11/08 01:37:50;;;;;;;12.57;1.40;;;7.80;99.90;;;;;;5063526;28;20033;-75
2021/11/08 01:40:16;;;;;;;13.40;1.30;;;7.80;99.90;;;;;;5061621;28;20107;-74
2021/11/08 01:42:41;;;;;;;12.90;1.67;;;7.80;99.90;;;;;;5059377;28;20383;-74
2021/11/08 01:45:07;;;;;;;16.35;1.33;;;7.70;99.90;;;;;;5061058;28;20068;-74
2021/11/08 01:47:33;;;;;;;9.68;1.70;;;7.70;99.90;;;;;;5061998;28;20125;-75
2021/11/08 01:49:58;;;;;;;13.45;1.40;;;7.70;99.90;;;;;;5062849;28;20070;-75
2021/11/08 01:52:24;;;;;;;16.25;1.77;;;7.60;99.90;;;;;;5064350;28;20051;-74
2021/11/08 01:54:50;;;;;;;11.25;1.13;;;7.50;99.90;;;;;;5062421;28;20036;-75
2021/11/08 01:57:15;;;;;;;8.98;1.08;;;7.50;99.90;;;;;;5060462;28;20590;-75
2021/11/08 01:59:41;;;;;;;17.92;2.78;;;7.40;99.90;;;;;;5059708;28;20048;-74
2021/11/08 02:02:07;;;;;;;12.55;1.30;;;7.40;99.90;;;;;;5062585;28;20390;-74
2021/11/08 02:04:33;;;;;;;10.57;1.20;;;7.40;99.90;;;;;;5062258;28;20048;-74
2021/11/08 02:06:58;;;;;;;11.50;1.45;;;7.30;99.90;;;;;;5062317;28;21739;-74
2021/11/08 02:09:25;;;;;;;11.02;1.45;;;7.30;99.90;;;;;;5091279;27;20040;-75
2021/11/08 02:11:51;;;;;;;12.27;1.38;;;7.30;99.90;;;;;;5060158;28;20435;-74
2021/11/08 02:14:16;;;;;;;13.13;1.67;;;7.20;99.90;;;;;;5059546;28;20208;-74
2021/11/08 02:16:42;;;;;;;18.23;2.03;;;7.20;99.90;;;;;;5064884;28;20071;-74
2021/11/08 02:19:08;;;;;;;9.50;2.00;;;7.10;99.90;;;;;;5060985;28;20039;-74
2021/11/08 02:21:35;;;;;;;13.30;1.17;;;7.10;99.90;;;;;;5062323;28;20471;-74
2021/11/08 02:24:03;;;;;;;11.50;0.98;;;7.10;99.90;;;;;;5093631;27;20080;-74
2021/11/08 02:26:29;;;;;;;13.00;1.48;;;7.00;99.90;;;;;;5063481;28;20052;-74
2021/11/08 02:28:55;;;;;;;10.35;1.50;;;7.00;99.90;;;;;;5067681;28;20046;-74
2021/11/08 02:31:23;;;;;;;14.95;2.00;;;7.00;99.90;;;;;;5063783;28;20406;-75
2021/11/08 02:33:52;;;;;;;13.82;1.50;;;7.00;99.90;;;;;;5047341;28;20085;-74
2021/11/08 02:36:21;;;;;;;13.98;1.20;;;7.00;99.90;;;;;;5065622;28;20113;-74
2021/11/08 02:38:50;;;;;;;17.17;1.88;;;7.00;99.90;;;;;;5063506;28;20040;-75
2021/11/08 02:41:18;;;;;;;12.93;1.50;;;7.00;99.90;;;;;;5065963;28;20112;-74
2021/11/08 02:43:45;;;;;;;15.77;1.35;;;7.00;99.90;;;;;;5065264;28;20032;-75
2021/11/08 02:46:16;;;;;;;11.00;1.50;;;6.90;99.90;;;;;;5063268;28;20090;-75
2021/11/08 02:48:46;;;;;;;12.73;1.15;;;6.90;99.90;;;;;;5063234;28;21888;-74
2021/11/08 02:51:22;;;;;;;22.00;1.88;;;6.90;99.90;;;;;;5064529;28;20785;-74
2021/11/08 02:53:53;;;;;;;11.70;2.05;;;6.90;99.90;;;;;;5063894;28;20033;-74
2021/11/08 02:56:20;;;;;;;7.35;1.45;;;6.90;99.90;;;;;;5062583;28;20033;-74
2021/11/08 02:58:46;;;;;;;13.23;1.50;;;6.90;99.90;;;;;;5067768;28;20652;-74
2021/11/08 03:01:17;;;;;;;11.27;1.17;;;6.80;99.90;;;;;;5061485;28;20132;-75
2021/11/08 03:03:47;;;;;;;14.52;1.38;;;6.80;99.90;;;;;;5065827;28;20037;-74
2021/11/08 03:08:43;;;;;;;14.10;1.60;;;6.80;99.90;;;;;;5065695;28;20550;-74
2021/11/08 03:11:08;;;;;;;17.30;2.13;;;6.80;99.90;;;;;;5062896;28;20045;-74
2021/11/08 03:13:37;;;;;;;11.40;1.38;;;6.80;99.90;;;;;;5067442;28;20051;-75
2021/11/08 03:16:15;;;;;;;15.88;1.63;;;6.80;99.90;;;;;;5065424;28;20048;-74
2021/11/08 03:18:43;;;;;;;12.20;1.40;;;6.80;99.90;;;;;;5063723;28;21222;-74
2021/11/08 03:21:18;;;;;;;15.02;1.77;;;6.70;99.90;;;;;;5061412;28;20072;-74
2021/11/08 03:23:49;;;;;;;17.00;2.27;;;6.70;99.90;;;;;;5061299;28;20442;-74
2021/11/08 03:28:50;;;;;;;13.52;1.60;;;6.70;99.90;;;;;;5062903;28;20576;-74
2021/11/08 03:31:16;;;;;;;16.20;2.00;;;6.70;99.90;;;;;;5062661;28;20445;-74
2021/11/08 03:33:44;;;;;;;13.82;1.83;;;6.60;99.90;;;;;;5059768;28;20044;-74
2021/11/08 03:36:10;;;;;;;12.35;1.77;;;6.70;99.90;;;;;;5060985;28;20442;-74
2021/11/08 03:38:39;;;;;;;17.27;2.15;;;6.60;99.90;;;;;;5061539;28;20040;-74
2021/11/08 03:41:07;;;;;;;12.13;1.80;;;6.50;99.90;;;;;;5092996;28;20494;-74
2021/11/08 03:43:33;;;;;;;12.55;1.25;;;6.50;99.90;;;;;;5063004;28;20533;-74
2021/11/08 03:45:59;;;;;;;17.85;1.92;;;6.50;99.90;;;;;;5060587;28;20045;-74
2021/11/08 03:48:26;;;;;;;13.95;2.63;;;6.50;99.90;;;;;;5058911;28;20040;-74
2021/11/08 03:50:51;;;;;;;17.80;1.67;;;6.60;99.90;;;;;;5092461;27;20045;-74
2021/11/08 03:53:17;;;;;;;17.55;1.85;;;6.60;99.90;;;;;;5056810;28;20047;-75
2021/11/08 03:55:45;;;;;;;13.18;2.00;;;6.60;99.90;;;;;;5094962;28;20036;-74
2021/11/08 03:58:11;;;;;;;27.65;2.20;;;6.60;99.90;;;;;;5058730;28;20037;-74
2021/11/08 04:00:40;;;;;;;16.42;2.53;;;6.60;99.90;;;;;;5094389;27;20043;-74
2021/11/08 04:03:07;;;;;;;16.27;1.63;;;6.60;99.90;;;;;;5047713;28;20120;-74
2021/11/08 04:05:36;;;;;;;11.48;1.50;;;6.60;99.90;;;;;;5062631;28;20055;-74
2021/11/08 04:08:07;;;;;;;16.85;2.50;;;6.60;99.90;;;;;;5059656;28;20036;-74
2021/11/08 04:10:35;;;;;;;16.02;2.17;;;6.60;99.90;;;;;;5060498;28;20173;-74
2021/11/08 04:13:04;;;;;;;15.23;1.63;;;6.60;99.90;;;;;;5061600;28;20052;-74
2021/11/08 04:15:36;;;;;;;13.65;1.80;;;6.70;99.90;;;;;;5043518;28;20745;-74
2021/11/08 04:18:14;;;;;;;16.40;2.15;;;6.70;99.90;;;;;;5058360;28;20049;-74
2021/11/08 04:20:42;;;;;;;17.58;2.55;;;6.80;99.90;;;;;;5062497;28;20402;-74
2021/11/08 04:23:10;;;;;;;15.55;2.80;;;6.80;99.90;;;;;;5060977;28;20044;-74
2021/11/08 04:25:35;;;;;;;18.48;2.05;;;6.80;99.90;;;;;;5061184;28;20045;-74
2021/11/08 04:28:01;;;;;;;16.05;2.63;;;6.80;99.90;;;;;;5058326;28;20044;-74
2021/11/08 04:30:29;;;;;;;17.40;2.67;;;6.80;99.90;;;;;;5092420;27;20470;-75
2021/11/08 04:35:38;;;;;;;18.30;1.75;;;6.80;99.90;;;;;;5056317;28;20080;-74
2021/11/08 04:41:05;;;;;;;18.08;1.63;;;6.70;99.90;;;;;;5066261;28;20044;-74
2021/11/08 04:43:49;;;;;;;12.50;1.60;;;6.70;99.90;;;;;;5061019;28;20274;-74
2021/11/08 04:49:03;;;;;;;15.07;2.28;;;6.80;99.90;;;;;;5094948;28;20049;-74
2021/11/08 04:51:57;;;;;;;18.38;1.83;;;6.80;99.90;;;;;;5057736;28;20147;-75
2021/11/08 04:57:31;;;;;;;12.10;1.98;;;6.90;99.90;;;;;;5057868;28;20630;-74
2021/11/08 05:22:47;;;;;;;18.75;2.60;;;6.90;99.90;;;;;;5062497;28;20430;-74
2021/11/08 05:30:07;;;;;;;14.15;1.65;;;6.90;99.90;;;;;;5058553;28;20162;-74
2021/11/08 05:32:35;;;;;;;22.38;1.90;;;6.90;99.90;;;;;;5057749;28;20478;-74
2021/11/08 05:35:03;;;;;;;16.55;2.38;;;7.00;99.90;;;;;;5058825;28;20446;-74
2021/11/08 05:37:29;;;;;;;11.90;1.30;;;7.00;99.90;;;;;;5059214;28;20440;-74
2021/11/08 05:39:58;;;;;;;17.02;2.15;;;7.10;99.90;;;;;;5061713;28;20039;-74
2021/11/08 05:42:24;;;;;;;11.82;1.20;;;7.10;99.90;;;;;;5056839;28;20047;-74
2021/11/08 05:44:52;;;;;;;21.50;1.73;;;7.10;99.90;;;;;;5087116;28;20037;-74
2021/11/08 05:47:18;;;;;;;9.07;1.35;;;7.20;99.90;;;;;;5057634;28;20118;-74
2021/11/08 05:49:45;;;;;;;12.50;1.77;;;7.20;99.90;;;;;;5057426;28;20040;-74
2021/11/08 05:52:13;;;;;;;12.73;1.98;;;7.20;99.90;;;;;;5057957;28;20032;-75
2021/11/08 05:54:40;;;;;;;18.27;1.92;;;7.20;99.90;;;;;;5058454;28;20131;-74
2021/11/08 05:57:30;;;;;;;16.95;1.38;;;7.20;99.90;;;;;;5059577;28;20089;-74
2021/11/08 06:49:29;;;;;;;18.05;1.42;;;7.40;99.90;;;;;;5059839;28;20040;-74
2021/11/08 06:51:56;;;;;;;13.75;2.22;;;7.40;99.90;;;;;;5063011;28;20044;-74
2021/11/08 06:54:24;;;;;;;12.85;1.63;;;7.40;99.90;;;;;;5062313;28;20075;-74
2021/11/08 06:56:54;;;;;;;15.13;2.22;;;7.40;99.90;;;;;;5046615;28;20044;-74
2021/11/08 06:59:24;;;;;;;18.42;2.00;;;7.40;99.90;;;;;;5062624;28;20037;-74
2021/11/08 07:01:52;;;;;;;12.18;1.75;;;7.40;99.90;;;;;;5060950;28;20053;-74
2021/11/08 07:04:18;;;;;;;17.05;2.85;;;7.40;99.90;;;;;;5060438;28;20498;-74
2021/11/08 07:06:44;;;;;;;21.58;3.17;;;7.50;99.90;;;;;;5062158;28;20060;-74
2021/11/08 07:09:11;;;;;;;12.95;1.80;;;7.40;99.90;;;;;;5061191;28;20080;-75
2021/11/08 07:11:38;;;;;;;19.92;1.88;;;7.50;99.90;;;;;;5061125;28;20051;-74
2021/11/08 07:14:06;;;;;;;20.20;2.28;;;7.40;99.90;;;;;;5059777;28;20934;-74
2021/11/08 07:16:32;;;;;;;17.45;1.83;;;7.50;99.90;;;;;;5063005;28;20045;-74
2021/11/08 07:18:58;;;;;;;13.45;2.13;;;7.40;99.90;;;;;;5064767;28;20047;-74
2021/11/08 07:21:23;;;;;;;13.82;1.58;;;7.50;99.90;;;;;;5063142;28;20055;-75
2021/11/08 07:23:49;;;;;;;18.00;2.50;;;7.50;99.90;;;;;;5062984;28;20032;-74
2021/11/08 07:26:14;;;;;;;23.52;3.42;;;7.50;99.90;;;;;;5053107;28;20735;-74
2021/11/08 07:28:40;;;;;;;18.48;3.42;;;7.50;99.90;;;;;;5055629;28;20106;-74
2021/11/08 07:31:08;;;;;;;18.90;2.90;;;7.40;99.90;;;;;;5055078;28;20111;-74
2021/11/08 07:33:34;;;;;;;19.83;2.92;;;7.40;99.90;;;;;;5055556;28;20049;-75
2021/11/08 07:36:00;;;;;;;10.80;2.03;;;7.50;99.90;;;;;;5051214;28;20039;-74
2021/11/08 07:38:26;;;;;;;10.65;1.90;;;7.50;99.90;;;;;;5048628;28;21619;-74
2021/11/08 07:40:52;;;;;;;14.70;1.98;;;7.50;99.90;;;;;;5064264;28;20064;-74
2021/11/08 07:43:18;;;;;;;16.05;2.35;;;7.60;99.90;;;;;;5048797;28;21243;-74
2021/11/08 07:45:44;;;;;;;21.08;3.00;;;7.60;99.90;;;;;;5051902;28;20048;-74
2021/11/08 07:48:09;;;;;;;10.75;2.28;;;7.70;99.90;;;;;;5056687;28;20083;-74
2021/11/08 07:50:36;;;;;;;17.20;2.25;;;7.80;99.90;;;;;;5055620;28;20647;-74
2021/11/08 07:53:02;;;;;;;21.70;2.80;;;7.80;99.90;;;;;;5058292;28;20122;-74
2021/11/08 07:55:28;;;;;;;12.43;1.95;;;7.80;99.90;;;;;;5055705;28;20048;-74
2021/11/08 07:57:53;;;;;;;12.57;2.42;;;7.90;99.90;;;;;;5052910;28;20048;-74
2021/11/08 08:00:19;;;;;;;22.35;2.42;;;7.90;99.90;;;;;;5052944;28;20040;-74
2021/11/08 08:02:47;;;;;;;12.20;2.35;;;8.00;99.90;;;;;;5049680;28;20939;-74
2021/11/08 08:05:13;;;;;;;16.35;2.72;;;8.00;99.90;;;;;;5082158;27;20560;-74
2021/11/08 08:07:38;;;;;;;12.98;2.40;;;8.10;99.90;;;;;;5051012;28;20081;-74
2021/11/08 08:10:04;;;;;;;18.02;1.98;;;8.20;99.90;;;;;;5052100;28;20056;-74
2021/11/08 08:12:30;;;;;;;12.60;1.92;;;8.10;99.90;;;;;;5053422;28;20598;-74
2021/11/08 08:14:56;;;;;;;14.80;2.10;;;8.30;99.90;;;;;;5052992;28;20041;-74
2021/11/08 08:17:21;;;;;;;15.25;1.88;;;8.30;99.90;;;;;;5084113;27;20045;-75
2021/11/08 08:19:47;;;;;;;10.75;1.65;;;8.30;99.90;;;;;;5052587;28;20049;-74
2021/11/08 08:22:13;;;;;;;14.25;2.22;;;8.40;99.90;;;;;;5051156;28;20056;-74
2021/11/08 08:24:40;;;;;;;18.42;2.08;;;8.40;99.90;;;;;;5053910;28;20521;-74
2021/11/08 08:27:06;;;;;;;13.68;2.33;;;8.50;99.90;;;;;;5050453;28;20036;-74
2021/11/08 08:29:32;;;;;;;15.25;2.53;;;8.60;99.90;;;;;;5034149;28;20052;-75
2021/11/08 08:31:58;;;;;;;18.10;3.85;;;8.60;99.90;;;;;;5082182;28;20079;-75
2021/11/08 08:34:25;;;;;;;16.67;2.25;;;8.70;99.90;;;;;;5052378;28;20528;-74
2021/11/08 08:36:53;;;;;;;10.57;2.72;;;8.80;99.90;;;;;;5050374;28;20037;-75
2021/11/08 08:39:20;;;;;;;13.63;2.55;;;8.80;99.90;;;;;;5055086;28;20688;-74
2021/11/08 08:41:47;;;;;;;14.35;2.60;;;9.00;99.90;;;;;;5050825;28;20033;-75
2021/11/08 08:44:14;;;;;;;14.88;2.22;;;9.10;99.90;;;;;;5052809;28;20049;-74
2021/11/08 08:46:44;;;;;;;9.68;1.42;;;9.20;99.90;;;;;;5052988;28;20048;-74
2021/11/08 08:49:14;;;;;;;9.35;1.70;;;9.30;99.90;;;;;;5051946;28;20047;-75
2021/11/08 08:51:42;;;;;;;24.15;2.70;;;9.30;99.90;;;;;;5083390;28;20041;-75
2021/11/08 08:54:12;;;;;;;7.28;1.30;;;9.50;99.90;;;;;;5067583;28;20049;-74
2021/11/08 08:56:38;;;;;;;14.63;2.53;;;9.40;99.90;;;;;;5053690;28;20071;-74
2021/11/08 08:59:05;;;;;;;14.70;1.98;;;9.50;99.90;;;;;;5051915;28;20151;-75
2021/11/08 09:01:30;;;;;;;14.32;2.05;;;9.50;99.90;;;;;;5051268;28;20045;-75
2021/11/08 09:03:57;;;;;;;20.58;2.00;;;9.60;99.90;;;;;;5050702;28;20050;-75
2021/11/08 09:06:24;;;;;;;16.33;2.50;;;9.60;99.90;;;;;;5049978;28;20040;-75
2021/11/08 09:08:51;;;;;;;13.95;1.80;;;9.70;99.90;;;;;;5050965;28;20031;-75
2021/11/08 09:11:17;;;;;;;14.00;2.38;;;9.70;99.90;;;;;;5080828;28;20080;-75
2021/11/08 09:13:43;;;;;;;18.08;2.28;;;9.70;99.90;;;;;;5048877;28;20094;-74
2021/11/08 09:16:13;;;;;;;17.23;1.92;;;9.60;99.90;;;;;;5060113;28;20151;-74
2021/11/08 09:18:45;;;;;;;20.88;2.60;;;9.70;99.90;;;;;;5057638;28;20037;-74
2021/11/08 09:21:12;;;;;;;14.35;1.85;;;9.80;99.90;;;;;;5053178;28;20044;-75
2021/11/08 09:23:39;;;;;;;14.27;1.73;;;9.80;99.90;;;;;;5052068;28;20586;-74
2021/11/08 09:26:07;;;;;;;20.70;1.98;;;9.90;99.90;;;;;;5049925;28;20053;-75
2021/11/08 09:28:33;;;;;;;13.20;1.52;;;9.90;99.90;;;;;;5069196;28;20052;-75
2021/11/08 09:30:58;;;;;;;15.77;2.42;;;10.00;99.90;;;;;;5080716;28;20080;-75
2021/11/08 09:33:25;;;;;;;9.55;1.13;;;10.00;99.90;;;;;;5055806;28;20145;-75
2021/11/08 09:35:57;;;;;;;10.82;1.50;;;10.00;99.90;;;;;;5051529;28;20910;-75
2021/11/08 09:38:24;;;;;;;14.35;2.08;;;10.00;99.90;;;;;;5052278;28;20037;-75
2021/11/08 09:40:50;;;;;;;13.35;2.22;;;10.10;99.90;;;;;;5051288;28;20044;-75
2021/11/08 09:43:19;;;;;;;12.40;2.50;;;10.10;99.90;;;;;;5053045;28;20097;-75
2021/11/08 09:45:45;;;;;;;11.18;2.45;;;10.20;99.90;;;;;;5054313;28;20072;-75
2021/11/08 09:48:13;;;;;;;9.60;1.55;;;10.20;99.90;;;;;;5051682;28;20057;-75
2021/11/08 09:50:42;;;;;;;14.77;1.38;;;10.30;99.90;;;;;;5081923;28;20148;-75
2021/11/08 09:53:09;;;;;;;13.80;2.22;;;10.30;99.90;;;;;;5081955;28;20075;-75
2021/11/08 09:55:35;;;;;;;16.35;1.45;;;10.30;99.90;;;;;;5050148;28;20036;-76
2021/11/08 09:58:02;;;;;;;12.30;1.13;;;10.30;99.90;;;;;;5054241;28;20040;-75
2021/11/08 10:00:37;;;;;;;20.13;2.15;;;10.30;99.90;;;;;;5053787;28;20044;-75
2021/11/08 10:03:11;;;;;;;12.90;1.75;;;10.30;99.90;;;;;;5052702;28;20053;-75
2021/11/08 10:05:47;;;;;;;14.07;2.05;;;10.30;99.90;;;;;;5055106;28;20106;-75
2021/11/08 10:08:16;;;;;;;13.73;1.35;;;10.30;99.90;;;;;;5057293;28;20040;-76
2021/11/08 10:10:41;;;;;;;12.50;1.52;;;10.30;99.90;;;;;;5056379;28;20056;-76
2021/11/08 10:13:09;;;;;;;13.85;2.28;;;10.30;99.90;;;;;;5087693;28;20072;-76
2021/11/08 10:15:37;;;;;;;15.40;1.70;;;10.30;99.90;;;;;;5056345;28;20040;-76
2021/11/08 10:18:04;;;;;;;14.82;1.80;;;10.30;99.90;;;;;;5055381;28;20063;-76
2021/11/08 10:20:51;;;;;;;20.88;2.42;;;10.40;99.90;;;;;;5052885;28;20048;-76
2021/11/08 10:23:20;;;;;;;13.77;2.05;;;10.50;99.90;;;;;;5056388;28;20044;-76
2021/11/08 10:25:47;;;;;;;10.52;0.90;;;10.50;99.90;;;;;;5056475;28;20122;-76
2021/11/08 10:28:23;;;;;;;15.60;1.50;;;10.60;99.90;;;;;;5054795;28;20036;-75
2021/11/08 10:30:59;;;;;;;6.85;0.98;;;10.60;99.90;;;;;;5054038;28;20067;-75
2021/11/08 10:33:30;;;;;;;12.45;1.75;;;10.60;99.90;;;;;;5053596;28;20382;-76
2021/11/08 10:36:02;;;;;;;8.45;1.55;;;10.60;99.90;;;;;;5054635;28;20585;-76
2021/11/08 10:38:32;;;;;;;15.35;1.77;;;10.50;99.90;;;;;;5054120;28;21103;-76
2021/11/08 10:41:00;;;;;;;11.02;1.63;;;10.60;99.90;;;;;;5054051;28;20124;-75
2021/11/08 10:43:27;;;;;;;12.85;1.60;;;10.50;99.90;;;;;;5054333;28;20041;-76
2021/11/08 10:45:56;;;;;;;13.02;1.55;;;10.50;99.90;;;;;;5054468;28;20064;-75
2021/11/08 10:48:28;;;;;;;14.75;1.40;;;10.50;99.90;;;;;;5082440;28;20504;-76
2021/11/08 10:50:54;;;;;;;14.27;1.75;;;10.50;99.90;;;;;;5053548;28;20054;-75
2021/11/08 10:53:21;;;;;;;9.10;1.30;;;10.50;99.90;;;;;;5055327;28;20048;-75
2021/11/08 10:55:55;;;;;;;11.60;1.58;;;10.60;99.90;;;;;;5082178;28;20069;-75
2021/11/08 10:58:22;;;;;;;10.75;1.50;;;10.50;99.90;;;;;;5053763;28;20535;-75
2021/11/08 11:00:50;;;;;;;12.75;1.52;;;10.60;99.90;;;;;;5051693;28;20040;-76
2021/11/08 11:03:18;;;;;;;9.85;1.38;;;10.60;99.90;;;;;;5055969;28;20041;-76
2021/11/08 11:05:45;;;;;;;12.77;1.45;;;10.60;99.90;;;;;;5053133;28;20055;-75
2021/11/08 11:08:14;;;;;;;16.85;2.50;;;10.50;99.90;;;;;;5034728;28;20040;-76
2021/11/08 11:10:51;;;;;;;14.20;2.00;;;10.50;99.90;;;;;;5054661;28;20052;-75
2021/11/08 11:13:20;;;;;;;18.85;1.92;;;10.50;99.90;;;;;;5085187;27;20086;-75
2021/11/08 11:15:46;;;;;;;13.80;2.30;;;10.60;99.90;;;;;;5041184;28;20547;-75
2021/11/08 11:18:13;;;;;;;12.43;1.23;;;10.60;99.90;;;;;;5052729;28;20037;-75
2021/11/08 11:20:43;;;;;;;12.65;1.65;;;10.60;99.90;;;;;;5057764;28;20459;-75
2021/11/08 11:23:20;;;;;;;10.50;1.55;;;10.70;99.90;;;;;;5054948;28;20471;-75
2021/11/08 11:25:52;;;;;;;8.65;1.08;;;10.80;99.90;;;;;;5053293;28;20044;-75
2021/11/08 11:28:24;;;;;;;8.40;1.17;;;10.90;99.90;;;;;;5077391;27;20102;-75
2021/11/08 11:30:50;;;;;;;10.10;1.55;;;11.10;99.90;;;;;;5053040;28;20054;-75
2021/11/08 11:33:22;;;;;;;14.07;1.40;;;11.10;99.90;;;;;;5051484;28;20040;-75
2021/11/08 11:35:51;;;;;;;12.68;1.50;;;11.20;99.90;;;;;;5054420;28;20054;-75
2021/11/08 11:38:30;;;;;;;12.50;0.77;;;11.30;99.90;;;;;;5050061;28;20694;-75
2021/11/08 11:41:12;;;;;;;8.93;1.17;;;11.50;99.90;;;;;;5053355;28;20048;-75
2021/11/08 11:43:56;;;;;;;11.63;1.40;;;11.50;99.90;;;;;;5051774;28;20123;-75
2021/11/08 11:46:26;;;;;;;9.27;0.88;;;11.60;99.90;;;;;;5048327;28;20044;-75
2021/11/08 11:48:52;;;;;;;12.27;2.50;;;11.50;99.90;;;;;;5047491;28;20055;-75
2021/11/08 11:51:25;;;;;;;16.02;2.42;;;11.50;99.90;;;;;;5049158;28;20048;-75
2021/11/08 11:53:51;;;;;;;6.00;1.00;;;11.40;99.90;;;;;;5052866;28;20044;-75
2021/11/08 11:56:19;;;;;;;5.57;0.98;;;11.40;99.90;;;;;;5030514;28;20463;-76
2021/11/08 11:58:46;;;;;;;8.57;1.38;;;11.50;99.90;;;;;;5052842;28;20035;-75
2021/11/08 12:01:14;;;;;;;5.40;0.93;;;11.60;99.90;;;;;;5053151;28;20106;-75
2021/11/08 12:03:40;;;;;;;7.88;1.20;;;11.60;99.90;;;;;;5048841;28;20032;-75
2021/11/08 12:06:10;;;;;;;9.52;1.45;;;11.60;99.90;;;;;;5079301;27;20123;-75
2021/11/08 12:08:38;;;;;;;9.10;1.52;;;11.50;99.90;;;;;;5051249;28;20052;-75
2021/11/08 12:11:09;;;;;;;9.60;1.70;;;11.50;99.90;;;;;;5052481;28;20051;-74
2021/11/08 12:13:41;;;;;;;10.02;1.65;;;11.40;99.90;;;;;;5051316;28;20036;-75
2021/11/08 12:16:19;;;;;;;10.10;1.20;;;11.40;99.90;;;;;;5051883;28;20048;-75
2021/11/08 12:18:46;;;;;;;13.38;1.38;;;11.30;99.90;;;;;;5050140;28;20040;-75
2021/11/08 12:21:24;;;;;;;9.50;0.85;;;11.30;99.90;;;;;;5051678;28;20051;-76
2021/11/08 12:23:51;;;;;;;9.52;0.98;;;11.20;99.90;;;;;;5053081;28;20162;-76
2021/11/08 12:26:31;;;;;;;9.20;1.27;;;11.10;99.90;;;;;;5063713;28;20491;-76
2021/11/08 12:29:13;;;;;;;6.05;0.90;;;11.00;99.90;;;;;;5046419;28;20044;-76
2021/11/08 12:31:40;;;;;;;6.90;1.05;;;11.00;99.90;;;;;;5050633;28;20498;-75
2021/11/08 12:34:14;;;;;;;13.90;1.05;;;11.00;99.90;;;;;;5051930;28;20048;-75
2021/11/08 12:36:41;;;;;;;6.32;1.13;;;11.00;99.90;;;;;;5050388;28;20584;-75
2021/11/08 12:39:08;;;;;;;5.18;0.68;;;11.00;99.90;;;;;;5052015;28;20041;-75
2021/11/08 12:41:48;;;;;;;6.30;1.23;;;11.10;99.90;;;;;;5049383;28;20040;-75
2021/11/08 12:44:20;;;;;;;8.63;0.68;;;11.20;99.90;;;;;;5051134;28;20044;-75
2021/11/08 12:46:53;;;;;;;3.75;0.40;;;11.30;99.90;;;;;;5051094;28;20498;-75
2021/11/08 12:49:27;;;;;;;9.38;0.70;;;11.50;99.90;;;;;;5046906;28;20040;-75
2021/11/08 12:52:09;;;;;;;3.55;0.38;;;11.50;99.90;;;;;;5049450;28;20526;-75
2021/11/08 12:54:50;;;;;;;8.40;0.90;;;11.60;99.90;;;;;;5049175;28;20279;-75
2021/11/08 12:57:19;;;;;;;3.72;0.30;;;11.60;99.90;;;;;;5047502;28;20042;-75
2021/11/08 12:59:55;;;;;;;10.52;0.60;;;11.60;99.90;;;;;;5050764;28;20113;-75
2021/11/08 13:02:27;;;;;;;3.22;0.55;;;11.60;99.90;;;;;;5060230;28;20048;-76
2021/11/08 13:05:06;;;;;;;6.60;0.50;;;11.70;99.90;;;;;;5051462;28;21654;-76
2021/11/08 13:07:36;;;;;;;7.63;0.82;;;11.90;99.90;;;;;;5049917;28;20048;-76
2021/11/08 13:10:06;;;;;;;4.88;0.90;;;12.00;99.90;;;;;;5068074;28;20044;-76
2021/11/08 13:12:36;;;;;;;4.72;0.77;;;12.00;99.90;;;;;;5079332;28;20123;-76
2021/11/08 13:15:28;;;;;;;8.70;0.70;;;12.10;99.90;;;;;;5051047;28;20040;-75
2021/11/08 13:18:10;;;;;;;4.78;0.60;;;12.00;99.90;;;;;;5048763;28;20075;-76
2021/11/08 13:20:38;;;;;;;2.90;0.32;;;11.90;99.90;;;;;;5045999;28;20036;-76
2021/11/08 13:23:28;;;;;;;4.00;0.43;;;11.80;99.90;;;;;;5047443;28;20128;-75
2021/11/08 13:25:56;;;;;;;3.83;0.43;;;11.70;99.90;;;;;;5049814;28;20417;-75
2021/11/08 13:28:26;;;;;;;3.00;0.30;;;11.70;99.90;;;;;;5045422;28;20067;-75
2021/11/08 13:30:55;;;;;;;1.92;0.35;;;11.60;99.90;;;;;;5048737;28;20056;-75
2021/11/08 13:33:27;;;;;;;5.30;0.57;;;11.50;99.90;;;;;;5055447;28;20036;-75
2021/11/08 13:35:55;;;;;;;5.88;0.45;;;11.50;99.90;;;;;;5053425;28;20048;-75
2021/11/08 13:38:22;;;;;;;1.90;0.30;;;11.40;99.90;;;;;;5052733;28;20067;-75
2021/11/08 13:40:58;;;;;;;6.45;0.52;;;11.30;99.90;;;;;;5083359;28;20049;-75
2021/11/08 13:43:34;;;;;;;6.25;1.02;;;11.30;99.90;;;;;;5055150;28;20077;-75
2021/11/08 13:46:07;;;;;;;6.55;0.75;;;11.30;99.90;;;;;;5058154;28;20052;-75
2021/11/08 13:48:48;;;;;;;3.65;0.38;;;11.30;99.90;;;;;;5054815;28;20071;-75
2021/11/08 13:51:24;;;;;;;6.90;0.30;;;11.30;99.90;;;;;;5053600;28;20041;-75
2021/11/08 13:53:58;;;;;;;6.20;0.68;;;11.20;99.90;;;;;;5054815;28;20045;-75
2021/11/08 13:56:33;;;;;;;4.05;0.38;;;11.30;99.90;;;;;;5054251;28;20111;-75
2021/11/08 13:59:02;;;;;;;2.33;0.40;;;11.20;99.90;;;;;;5054738;28;20087;-75
2021/11/08 14:01:30;;;;;;;4.85;0.30;;;11.20;99.90;;;;;;5086001;27;20045;-75
2021/11/08 14:03:57;;;;;;;7.65;0.82;;;11.10;99.90;;;;;;5054576;28;20066;-75
2021/11/08 14:06:37;;;;;;;2.08;0.20;;;11.00;99.90;;;;;;5053058;28;20083;-75
2021/11/08 14:09:06;;;;;;;2.88;0.30;;;11.00;99.90;;;;;;5057483;28;20044;-75
2021/11/08 14:11:38;;;;;;;4.82;0.20;;;11.00;99.90;;;;;;5055582;28;20052;-75
2021/11/08 14:14:07;;;;;;;3.38;0.50;;;11.00;99.90;;;;;;5084673;27;20093;-75
2021/11/08 14:16:34;;;;;;;6.85;0.30;;;10.90;99.90;;;;;;5057226;28;20049;-75
2021/11/08 14:19:00;;;;;;;3.80;0.20;;;10.90;99.90;;;;;;5056284;28;20040;-75
2021/11/08 14:21:30;;;;;;;2.97;0.68;;;10.90;99.90;;;;;;5084751;28;20052;-75
2021/11/08 14:24:03;;;;;;;3.65;0.30;;;10.90;99.90;;;;;;5061481;28;20098;-75
2021/11/08 14:26:30;;;;;;;2.63;0.65;;;10.90;99.90;;;;;;5056244;28;20040;-75
2021/11/08 14:28:57;;;;;;;4.82;0.45;;;10.90;99.90;;;;;;5059227;28;20136;-75
2021/11/08 14:31:29;;;;;;;5.85;0.25;;;10.90;99.90;;;;;;5057810;28;20059;-75